Time;durP1;ratioP1;P1;durP2;ratioP2;P2;SDS_P1;SDS_P2;PMS_P1;PMS_P2;Temp;Humidity;BMP_temperature;BMP_pressure;BME280_temperature;BME280_humidity;BME280_pressure;Samples;Min_cycle;Max_cycle;Signal;HPM_P1;HPM_P2
2022/09/05 00:01:50;;;;;;;2.47;2.27;;;;;;;;;;5091571;28;20232;-47
2022/09/05 00:04:20;;;;;;;2.93;2.30;;;;;;;;;;5092313;28;20198;-48
2022/09/05 00:06:50;;;;;;;2.60;2.40;;;;;;;;;;5091552;28;20226;-47
2022/09/05 00:09:18;;;;;;;2.40;2.20;;;;;;;;;;5091902;28;20309;-47
2022/09/05 00:11:48;;;;;;;2.30;2.10;;;;;;;;;;5091224;28;20201;-47
2022/09/05 00:14:23;;;;;;;3.60;2.10;;;;;;;;;;5091505;28;20203;-47
2022/09/05 00:16:56;;;;;;;5.70;2.10;;;;;;;;;;5091744;28;20202;-48
2022/09/05 00:19:29;;;;;;;3.50;2.33;;;;;;;;;;5091649;28;20664;-47
2022/09/05 00:22:01;;;;;;;4.20;2.30;;;;;;;;;;5090861;28;20203;-47
2022/09/05 00:24:39;;;;;;;2.33;2.10;;;;;;;;;;5091609;28;20614;-47
2022/09/05 00:27:08;;;;;;;2.20;2.00;;;;;;;;;;5091506;28;20220;-47
2022/09/05 00:29:54;;;;;;;2.83;2.23;;;;;;;;;;5091796;28;20195;-48
2022/09/05 00:32:26;;;;;;;2.10;1.90;;;;;;;;;;5091643;28;20242;-48
2022/09/05 00:35:00;;;;;;;2.57;1.90;;;;;;;;;;5091673;28;20202;-48
2022/09/05 00:37:30;;;;;;;2.97;2.20;;;;;;;;;;5091272;28;20308;-48
2022/09/05 00:40:09;;;;;;;2.97;2.10;;;;;;;;;;5091638;28;20218;-48
2022/09/05 00:42:35;;;;;;;2.33;2.13;;;;;;;;;;5091570;28;20197;-47
2022/09/05 00:45:02;;;;;;;3.83;2.20;;;;;;;;;;5091233;28;20296;-48
2022/09/05 00:47:34;;;;;;;2.20;2.00;;;;;;;;;;5091428;28;20276;-47
2022/09/05 00:50:02;;;;;;;5.00;2.10;;;;;;;;;;5091061;28;20264;-47
2022/09/05 00:52:31;;;;;;;3.93;2.13;;;;;;;;;;5091202;28;20659;-48
2022/09/05 00:55:01;;;;;;;2.33;2.00;;;;;;;;;;5090923;28;20575;-48
2022/09/05 00:57:38;;;;;;;2.50;2.30;;;;;;;;;;5091488;28;20202;-47
2022/09/05 01:00:10;;;;;;;2.90;2.57;;;;;;;;;;5091016;28;20189;-47
2022/09/05 01:02:48;;;;;;;2.27;2.07;;;;;;;;;;5091457;28;20201;-48
2022/09/05 01:05:23;;;;;;;2.50;2.30;;;;;;;;;;5090491;28;20299;-48
2022/09/05 01:07:54;;;;;;;2.23;2.00;;;;;;;;;;5090268;28;20606;-47
2022/09/05 01:10:24;;;;;;;3.80;2.50;;;;;;;;;;5091303;28;20272;-48
2022/09/05 01:12:55;;;;;;;2.63;2.43;;;;;;;;;;5091135;28;20205;-47
2022/09/05 01:15:22;;;;;;;2.27;2.07;;;;;;;;;;5091100;28;20202;-47
2022/09/05 01:17:59;;;;;;;2.40;2.20;;;;;;;;;;5091216;28;20208;-47
2022/09/05 01:20:43;;;;;;;2.70;2.13;;;;;;;;;;5091296;28;20206;-46
2022/09/05 01:23:16;;;;;;;3.80;2.50;;;;;;;;;;5093690;28;20207;-47
2022/09/05 01:25:54;;;;;;;4.70;1.93;;;;;;;;;;5095235;28;20209;-46
2022/09/05 01:28:23;;;;;;;2.13;1.93;;;;;;;;;;5094817;28;20247;-47
2022/09/05 01:30:51;;;;;;;2.67;2.13;;;;;;;;;;5095097;28;20204;-47
2022/09/05 01:33:22;;;;;;;2.13;2.03;;;;;;;;;;5094814;28;20207;-46
2022/09/05 01:36:03;;;;;;;2.63;2.00;;;;;;;;;;5094666;28;20232;-46
2022/09/05 01:38:33;;;;;;;2.47;2.27;;;;;;;;;;5092639;28;20189;-46
2022/09/05 01:41:05;;;;;;;2.50;2.10;;;;;;;;;;5094721;28;20568;-47
2022/09/05 01:43:41;;;;;;;2.10;1.97;;;;;;;;;;5094600;28;20655;-47
2022/09/05 01:46:18;;;;;;;2.23;2.03;;;;;;;;;;5094977;28;20202;-47
2022/09/05 01:48:48;;;;;;;2.83;2.10;;;;;;;;;;5094726;28;20198;-46
2022/09/05 01:51:29;;;;;;;2.33;2.13;;;;;;;;;;5094642;28;20209;-47
2022/09/05 01:53:58;;;;;;;3.40;2.10;;;;;;;;;;5094467;28;20207;-46
2022/09/05 01:56:29;;;;;;;2.40;2.17;;;;;;;;;;5094652;28;20297;-46
2022/09/05 01:59:04;;;;;;;3.27;2.23;;;;;;;;;;5094361;28;20198;-46
2022/09/05 02:01:35;;;;;;;2.50;2.30;;;;;;;;;;5093970;28;20661;-47
2022/09/05 02:04:24;;;;;;;2.73;2.10;;;;;;;;;;5094146;28;20249;-47
2022/09/05 02:06:54;;;;;;;3.77;2.20;;;;;;;;;;5078252;28;20233;-46
2022/09/05 02:09:31;;;;;;;2.40;2.20;;;;;;;;;;5094403;28;20326;-46
2022/09/05 02:11:59;;;;;;;2.93;2.27;;;;;;;;;;5094429;28;20585;-47
2022/09/05 02:14:30;;;;;;;2.50;2.27;;;;;;;;;;5094211;28;20735;-47
2022/09/05 02:17:05;;;;;;;2.30;2.10;;;;;;;;;;5093957;28;20197;-47
2022/09/05 02:19:37;;;;;;;2.40;2.20;;;;;;;;;;5094251;28;20200;-46
2022/09/05 02:22:06;;;;;;;2.37;2.17;;;;;;;;;;5094056;28;20243;-47
2022/09/05 02:24:35;;;;;;;2.57;2.37;;;;;;;;;;5094162;28;20201;-47
2022/09/05 02:27:10;;;;;;;3.27;2.50;;;;;;;;;;5093893;28;20768;-46
2022/09/05 02:29:43;;;;;;;4.33;2.37;;;;;;;;;;5094079;28;20196;-46
2022/09/05 02:32:13;;;;;;;2.43;2.23;;;;;;;;;;5093992;28;20218;-46
2022/09/05 02:34:42;;;;;;;2.93;2.53;;;;;;;;;;5092658;28;20215;-46
2022/09/05 02:37:12;;;;;;;2.97;2.50;;;;;;;;;;5093694;28;20200;-46
2022/09/05 02:39:43;;;;;;;2.60;2.23;;;;;;;;;;5093928;28;20291;-47
2022/09/05 02:42:13;;;;;;;4.43;2.33;;;;;;;;;;5093750;28;20658;-47
2022/09/05 02:44:46;;;;;;;2.90;2.20;;;;;;;;;;5093606;28;20195;-47
2022/09/05 02:47:14;;;;;;;2.30;2.10;;;;;;;;;;5093839;28;20256;-47
2022/09/05 02:49:44;;;;;;;2.80;2.30;;;;;;;;;;5093578;28;20200;-47
2022/09/05 02:52:13;;;;;;;2.50;2.20;;;;;;;;;;5093448;28;20213;-47
2022/09/05 02:54:41;;;;;;;3.40;2.30;;;;;;;;;;5093622;28;20191;-47
2022/09/05 02:57:20;;;;;;;3.27;2.10;;;;;;;;;;5093308;28;20188;-46
2022/09/05 02:59:53;;;;;;;4.53;2.47;;;;;;;;;;5093346;28;20559;-47
2022/09/05 03:02:23;;;;;;;2.67;2.47;;;;;;;;;;5093310;28;20206;-47
2022/09/05 03:04:51;;;;;;;2.70;2.30;;;;;;;;;;5093038;28;20210;-47
2022/09/05 03:07:35;;;;;;;3.30;2.27;;;;;;;;;;5093029;28;20286;-46
2022/09/05 03:10:16;;;;;;;2.40;2.10;;;;;;;;;;5092982;28;20200;-47
2022/09/05 03:13:01;;;;;;;2.73;1.90;;;;;;;;;;5093101;28;20205;-47
2022/09/05 03:15:43;;;;;;;2.40;2.20;;;;;;;;;;5092972;28;20413;-46
2022/09/05 03:18:20;;;;;;;2.20;2.00;;;;;;;;;;5092941;28;20273;-47
2022/09/05 03:21:02;;;;;;;2.30;2.00;;;;;;;;;;5092959;28;20214;-47
2022/09/05 03:23:47;;;;;;;2.77;2.57;;;;;;;;;;5093202;28;20208;-47
2022/09/05 03:26:37;;;;;;;3.47;2.40;;;;;;;;;;5092754;28;20618;-47
2022/09/05 03:29:15;;;;;;;2.87;2.30;;;;;;;;;;5077340;28;20231;-46
2022/09/05 03:31:59;;;;;;;2.53;2.00;;;;;;;;;;5092733;28;20236;-46
2022/09/05 03:34:42;;;;;;;2.87;2.20;;;;;;;;;;5092608;28;20187;-46
2022/09/05 03:37:26;;;;;;;2.17;1.97;;;;;;;;;;5092671;28;20242;-47
2022/09/05 03:40:07;;;;;;;2.37;2.17;;;;;;;;;;5092618;28;20192;-47
2022/09/05 03:42:48;;;;;;;2.60;2.40;;;;;;;;;;5092501;28;20197;-46
2022/09/05 03:45:22;;;;;;;2.47;2.13;;;;;;;;;;5058618;28;20672;-46
2022/09/05 03:47:56;;;;;;;2.53;2.30;;;;;;;;;;5092146;28;20733;-46
2022/09/05 03:50:28;;;;;;;3.47;2.03;;;;;;;;;;5092425;28;20401;-47
2022/09/05 03:53:03;;;;;;;2.60;2.40;;;;;;;;;;5091400;28;20203;-47
2022/09/05 03:55:38;;;;;;;2.23;2.03;;;;;;;;;;5092631;28;20227;-46
2022/09/05 03:58:15;;;;;;;3.90;2.40;;;;;;;;;;5091904;28;20252;-48
2022/09/05 04:00:42;;;;;;;3.10;2.30;;;;;;;;;;5092378;28;20224;-46
2022/09/05 04:03:18;;;;;;;3.43;2.20;;;;;;;;;;5092072;28;20601;-47
2022/09/05 04:05:49;;;;;;;3.30;2.50;;;;;;;;;;5091971;28;20203;-47
2022/09/05 04:08:19;;;;;;;2.47;2.27;;;;;;;;;;5091673;28;20265;-47
2022/09/05 04:10:52;;;;;;;2.87;2.40;;;;;;;;;;5091833;28;20283;-47
2022/09/05 04:13:20;;;;;;;3.67;2.60;;;;;;;;;;5090424;28;20223;-46
2022/09/05 04:15:48;;;;;;;2.50;2.30;;;;;;;;;;5091755;28;20290;-47
2022/09/05 04:18:22;;;;;;;4.30;2.47;;;;;;;;;;5091804;28;20311;-46
2022/09/05 04:20:53;;;;;;;2.60;2.40;;;;;;;;;;5091703;28;20210;-46
2022/09/05 04:23:24;;;;;;;3.50;2.10;;;;;;;;;;5091750;28;20202;-46
2022/09/05 04:26:00;;;;;;;4.53;2.50;;;;;;;;;;5091679;28;20227;-47
2022/09/05 04:28:34;;;;;;;3.23;2.23;;;;;;;;;;5091832;28;20693;-48
2022/09/05 04:31:03;;;;;;;3.70;2.53;;;;;;;;;;5091889;28;20289;-47
2022/09/05 04:33:34;;;;;;;3.03;2.20;;;;;;;;;;5091600;28;20607;-48
2022/09/05 04:36:07;;;;;;;2.90;2.60;;;;;;;;;;5091741;28;20199;-48
2022/09/05 04:38:35;;;;;;;3.07;2.40;;;;;;;;;;5091544;28;20687;-48
2022/09/05 04:41:03;;;;;;;2.50;2.30;;;;;;;;;;5091748;28;20214;-48
2022/09/05 04:43:32;;;;;;;2.90;2.40;;;;;;;;;;5091637;28;20200;-47
2022/09/05 04:46:01;;;;;;;6.77;2.97;;;;;;;;;;5091487;28;20563;-47
2022/09/05 04:48:32;;;;;;;3.03;2.70;;;;;;;;;;5091055;28;20586;-48
2022/09/05 04:51:02;;;;;;;4.37;2.30;;;;;;;;;;5091215;28;20296;-48
2022/09/05 04:53:35;;;;;;;2.83;2.50;;;;;;;;;;5091471;28;20227;-48
2022/09/05 04:56:05;;;;;;;5.13;2.63;;;;;;;;;;5091476;28;20241;-48
2022/09/05 04:58:33;;;;;;;3.47;2.87;;;;;;;;;;5094994;28;20210;-48
2022/09/05 05:01:00;;;;;;;3.20;2.50;;;;;;;;;;5095625;28;20201;-47
2022/09/05 05:03:28;;;;;;;2.87;2.60;;;;;;;;;;5095811;28;20191;-48
2022/09/05 05:05:56;;;;;;;5.37;2.70;;;;;;;;;;5095511;28;20203;-48
2022/09/05 05:08:23;;;;;;;3.57;2.50;;;;;;;;;;5095011;28;20262;-48
2022/09/05 05:10:53;;;;;;;3.03;2.40;;;;;;;;;;5095467;28;20194;-47
2022/09/05 05:13:22;;;;;;;4.00;2.37;;;;;;;;;;5094705;28;20740;-47
2022/09/05 05:15:51;;;;;;;2.90;2.70;;;;;;;;;;5095177;28;20292;-48
2022/09/05 05:18:20;;;;;;;3.10;2.23;;;;;;;;;;5094764;28;20320;-47
2022/09/05 05:20:51;;;;;;;2.57;2.37;;;;;;;;;;5094758;28;20249;-48
2022/09/05 05:23:18;;;;;;;2.50;2.30;;;;;;;;;;5095142;28;20217;-48
2022/09/05 05:25:47;;;;;;;3.90;2.60;;;;;;;;;;5094991;28;20204;-48
2022/09/05 05:28:18;;;;;;;3.53;2.23;;;;;;;;;;5095117;28;20701;-48
2022/09/05 05:30:44;;;;;;;3.93;2.30;;;;;;;;;;5095188;28;20622;-48
2022/09/05 05:33:16;;;;;;;3.47;2.70;;;;;;;;;;5094965;28;20676;-48
2022/09/05 05:35:45;;;;;;;4.27;3.00;;;;;;;;;;5094596;28;20283;-48
2022/09/05 05:38:23;;;;;;;3.03;2.67;;;;;;;;;;5094417;28;20265;-48
2022/09/05 05:40:51;;;;;;;2.90;2.60;;;;;;;;;;5094794;28;20195;-48
2022/09/05 05:43:21;;;;;;;2.57;2.37;;;;;;;;;;5094747;28;20204;-48
2022/09/05 05:45:55;;;;;;;4.87;2.60;;;;;;;;;;5094355;28;20204;-47
2022/09/05 05:48:30;;;;;;;2.83;2.60;;;;;;;;;;5094613;28;20227;-49
2022/09/05 05:51:02;;;;;;;2.97;2.67;;;;;;;;;;5094617;28;20278;-46
2022/09/05 05:53:33;;;;;;;2.70;2.50;;;;;;;;;;5094528;28;20200;-47
2022/09/05 05:56:12;;;;;;;2.90;2.70;;;;;;;;;;5094469;28;20204;-46
2022/09/05 05:59:06;;;;;;;3.00;2.70;;;;;;;;;;5094650;28;20204;-47
2022/09/05 06:01:56;;;;;;;4.93;2.60;;;;;;;;;;5094073;28;20269;-46
2022/09/05 06:04:42;;;;;;;3.30;2.90;;;;;;;;;;5093991;28;20733;-46
2022/09/05 06:07:09;;;;;;;4.87;2.97;;;;;;;;;;5093049;28;20230;-46
2022/09/05 06:09:45;;;;;;;4.50;3.07;;;;;;;;;;5094011;28;20221;-46
2022/09/05 06:12:41;;;;;;;5.33;2.70;;;;;;;;;;5094396;28;20255;-47
2022/09/05 06:15:25;;;;;;;6.97;2.83;;;;;;;;;;5031656;28;20306;-46
2022/09/05 06:18:13;;;;;;;2.80;2.60;;;;;;;;;;5085991;28;20200;-47
2022/09/05 06:20:51;;;;;;;4.07;2.70;;;;;;;;;;5094368;28;20231;-47
2022/09/05 06:23:42;;;;;;;4.43;2.77;;;;;;;;;;5093576;28;20202;-47
2022/09/05 06:26:19;;;;;;;4.10;2.60;;;;;;;;;;5092196;28;20205;-47
2022/09/05 06:28:53;;;;;;;6.27;2.80;;;;;;;;;;5093733;28;20314;-48
2022/09/05 06:31:29;;;;;;;3.00;2.70;;;;;;;;;;5094224;28;20617;-48
2022/09/05 06:34:03;;;;;;;3.30;2.63;;;;;;;;;;5093345;28;20292;-48
2022/09/05 06:36:33;;;;;;;2.87;2.67;;;;;;;;;;5093929;28;20728;-48
2022/09/05 06:39:06;;;;;;;3.00;2.80;;;;;;;;;;5093630;28;20239;-47
2022/09/05 06:41:36;;;;;;;3.20;2.90;;;;;;;;;;5093849;28;20196;-47
2022/09/05 06:44:21;;;;;;;4.20;3.13;;;;;;;;;;5093492;28;20202;-47
2022/09/05 06:46:52;;;;;;;5.17;2.80;;;;;;;;;;5093526;28;20236;-48
2022/09/05 06:49:20;;;;;;;3.90;2.90;;;;;;;;;;5093549;28;20232;-48
2022/09/05 06:51:53;;;;;;;4.43;3.30;;;;;;;;;;5093616;28;20216;-48
2022/09/05 06:54:32;;;;;;;7.80;3.00;;;;;;;;;;5093671;28;20213;-47
2022/09/05 06:57:04;;;;;;;3.10;2.80;;;;;;;;;;5093419;28;20202;-48
2022/09/05 06:59:46;;;;;;;3.57;3.10;;;;;;;;;;5093657;28;20220;-48
2022/09/05 07:02:17;;;;;;;6.53;2.90;;;;;;;;;;5092866;28;20201;-48
2022/09/05 07:04:46;;;;;;;4.50;3.13;;;;;;;;;;5093262;28;20233;-48
2022/09/05 07:07:15;;;;;;;4.63;2.90;;;;;;;;;;5092672;28;20777;-48
2022/09/05 07:09:48;;;;;;;5.63;3.30;;;;;;;;;;5092713;28;20195;-48
2022/09/05 07:12:17;;;;;;;4.20;3.20;;;;;;;;;;5093073;28;20189;-48
2022/09/05 07:14:48;;;;;;;8.10;3.57;;;;;;;;;;5093000;28;20216;-48
2022/09/05 07:17:17;;;;;;;5.77;3.33;;;;;;;;;;5093048;28;20197;-48
2022/09/05 07:19:49;;;;;;;4.93;3.00;;;;;;;;;;5092134;28;20202;-48
2022/09/05 07:22:20;;;;;;;3.60;3.30;;;;;;;;;;5091792;28;20197;-48
2022/09/05 07:24:48;;;;;;;3.60;3.17;;;;;;;;;;5092514;28;20198;-48
2022/09/05 07:27:27;;;;;;;3.10;2.80;;;;;;;;;;5091306;28;20226;-48
2022/09/05 07:29:55;;;;;;;3.20;2.90;;;;;;;;;;5092880;28;20244;-48
2022/09/05 07:32:23;;;;;;;3.00;2.70;;;;;;;;;;5092780;28;20223;-48
2022/09/05 07:34:50;;;;;;;6.97;3.00;;;;;;;;;;5092542;28;20217;-48
2022/09/05 07:37:19;;;;;;;3.80;3.17;;;;;;;;;;5092567;28;21035;-48
2022/09/05 07:39:46;;;;;;;3.50;3.07;;;;;;;;;;5092532;28;20260;-48
2022/09/05 07:42:15;;;;;;;6.63;3.20;;;;;;;;;;5092379;28;20289;-48
2022/09/05 07:44:45;;;;;;;3.73;3.20;;;;;;;;;;5092508;28;20198;-48
2022/09/05 07:47:15;;;;;;;7.27;3.30;;;;;;;;;;5092260;28;20254;-49
2022/09/05 07:49:44;;;;;;;4.60;3.10;;;;;;;;;;5091967;28;20213;-47
2022/09/05 07:52:13;;;;;;;3.70;2.90;;;;;;;;;;5092553;28;20272;-47
2022/09/05 07:54:40;;;;;;;3.90;2.80;;;;;;;;;;5092509;28;20568;-48
2022/09/05 07:57:08;;;;;;;3.37;3.07;;;;;;;;;;5092395;28;20205;-47
2022/09/05 07:59:35;;;;;;;3.60;3.30;;;;;;;;;;5092478;28;20198;-49
2022/09/05 08:02:02;;;;;;;3.40;3.10;;;;;;;;;;5091681;28;20567;-48
2022/09/05 08:04:30;;;;;;;4.97;3.30;;;;;;;;;;5092154;28;20256;-50
2022/09/05 08:06:59;;;;;;;3.63;3.00;;;;;;;;;;5091112;28;20215;-47
2022/09/05 08:09:26;;;;;;;8.23;3.20;;;;;;;;;;5089768;28;20194;-48
2022/09/05 08:11:56;;;;;;;3.80;2.87;;;;;;;;;;5091779;28;20191;-47
2022/09/05 08:14:29;;;;;;;6.67;3.10;;;;;;;;;;5090232;28;20623;-47
2022/09/05 08:16:55;;;;;;;5.33;3.03;;;;;;;;;;5091809;28;20607;-48
2022/09/05 08:19:34;;;;;;;4.40;2.63;;;;;;;;;;5091220;28;20221;-48
2022/09/05 08:22:02;;;;;;;3.63;3.20;;;;;;;;;;5091729;28;20202;-48
2022/09/05 08:24:31;;;;;;;3.20;2.90;;;;;;;;;;5091299;28;20233;-49
2022/09/05 08:27:02;;;;;;;3.50;3.20;;;;;;;;;;5091557;28;20213;-46
2022/09/05 08:29:30;;;;;;;6.67;2.63;;;;;;;;;;5091790;28;20205;-49
2022/09/05 08:32:01;;;;;;;5.37;2.83;;;;;;;;;;5091649;28;20215;-48
2022/09/05 08:34:32;;;;;;;7.03;3.17;;;;;;;;;;5091436;28;20649;-49
2022/09/05 08:36:59;;;;;;;4.40;2.90;;;;;;;;;;5091779;28;20200;-49
2022/09/05 08:39:30;;;;;;;5.23;3.00;;;;;;;;;;5091604;28;20191;-48
2022/09/05 08:42:07;;;;;;;4.37;3.13;;;;;;;;;;5091271;28;20256;-47
2022/09/05 08:44:35;;;;;;;5.13;2.90;;;;;;;;;;5091067;28;20203;-47
2022/09/05 08:47:07;;;;;;;3.10;2.73;;;;;;;;;;5091199;28;20284;-48
2022/09/05 08:49:51;;;;;;;9.47;3.60;;;;;;;;;;5091679;28;20623;-47
2022/09/05 08:52:25;;;;;;;5.33;2.70;;;;;;;;;;5091282;28;20200;-48
2022/09/05 08:54:58;;;;;;;3.47;3.00;;;;;;;;;;5091613;28;20282;-47
2022/09/05 08:57:42;;;;;;;4.40;3.00;;;;;;;;;;5091315;28;20204;-47
2022/09/05 09:00:10;;;;;;;3.67;3.10;;;;;;;;;;5091127;28;20195;-47
2022/09/05 09:02:47;;;;;;;5.13;3.30;;;;;;;;;;5091480;28;20207;-47
2022/09/05 09:05:17;;;;;;;5.77;2.97;;;;;;;;;;5090488;28;20200;-49
2022/09/05 09:07:46;;;;;;;5.13;3.00;;;;;;;;;;5090752;28;20237;-50
2022/09/05 09:10:22;;;;;;;6.57;2.97;;;;;;;;;;5091237;28;20303;-48
2022/09/05 09:13:07;;;;;;;8.20;3.40;;;;;;;;;;5091051;28;20231;-48
2022/09/05 09:15:36;;;;;;;4.77;2.77;;;;;;;;;;5090726;28;20277;-48
2022/09/05 09:18:09;;;;;;;5.77;2.93;;;;;;;;;;5091264;28;20693;-48
2022/09/05 09:20:41;;;;;;;5.30;2.80;;;;;;;;;;5090657;28;20649;-47
2022/09/05 09:23:10;;;;;;;6.37;3.40;;;;;;;;;;5091073;28;20197;-48
2022/09/05 09:25:41;;;;;;;4.20;2.77;;;;;;;;;;5090845;28;20198;-48
2022/09/05 09:28:21;;;;;;;3.73;3.33;;;;;;;;;;5091165;28;20325;-48
2022/09/05 09:30:53;;;;;;;5.60;2.83;;;;;;;;;;5090497;28;20202;-52
2022/09/05 09:33:22;;;;;;;5.43;3.10;;;;;;;;;;5090454;28;20202;-48
2022/09/05 09:35:51;;;;;;;4.43;2.70;;;;;;;;;;5090830;28;20206;-48
2022/09/05 09:38:23;;;;;;;4.83;3.07;;;;;;;;;;5091017;28;20667;-47
2022/09/05 09:41:15;;;;;;;3.73;2.97;;;;;;;;;;5090972;28;20207;-48
2022/09/05 09:44:15;;;;;;;3.73;3.33;;;;;;;;;;5092954;28;20202;-48
2022/09/05 09:46:42;;;;;;;3.27;2.77;;;;;;;;;;5032047;28;20286;-48
2022/09/05 09:49:15;;;;;;;3.37;3.00;;;;;;;;;;5031672;28;20310;-48
2022/09/05 09:51:47;;;;;;;4.80;2.67;;;;;;;;;;5063107;28;20725;-49
2022/09/05 09:54:25;;;;;;;6.83;3.20;;;;;;;;;;5093417;28;20202;-49
2022/09/05 09:57:04;;;;;;;11.27;3.07;;;;;;;;;;5093388;28;20653;-49
2022/09/05 09:59:58;;;;;;;8.33;3.10;;;;;;;;;;5094490;28;20212;-49
2022/09/05 10:02:42;;;;;;;4.07;3.10;;;;;;;;;;5094534;28;20198;-49
2022/09/05 10:05:27;;;;;;;5.10;2.80;;;;;;;;;;5094378;28;20196;-49
2022/09/05 10:08:01;;;;;;;6.40;2.90;;;;;;;;;;5093917;28;20329;-49
2022/09/05 10:10:39;;;;;;;5.60;3.10;;;;;;;;;;5089691;28;20193;-48
2022/09/05 10:13:19;;;;;;;3.20;2.90;;;;;;;;;;5093970;28;20188;-48
2022/09/05 10:15:55;;;;;;;2.80;2.60;;;;;;;;;;5093856;28;20296;-48
2022/09/05 10:18:31;;;;;;;4.93;3.00;;;;;;;;;;5093564;28;20288;-48
2022/09/05 10:21:07;;;;;;;6.67;2.80;;;;;;;;;;5093882;28;20197;-48
2022/09/05 10:23:44;;;;;;;7.30;2.90;;;;;;;;;;5093897;28;20205;-48
2022/09/05 10:26:23;;;;;;;4.03;3.10;;;;;;;;;;5098109;28;20210;-48
2022/09/05 10:28:57;;;;;;;5.03;2.80;;;;;;;;;;5114041;28;20286;-47
2022/09/05 10:31:36;;;;;;;7.30;3.47;;;;;;;;;;5113890;28;20235;-47
2022/09/05 10:34:10;;;;;;;3.67;2.97;;;;;;;;;;5113996;28;20770;-48
2022/09/05 10:36:39;;;;;;;6.10;2.93;;;;;;;;;;5114206;28;20217;-47
2022/09/05 10:39:12;;;;;;;5.33;2.77;;;;;;;;;;5113678;28;20192;-48
2022/09/05 10:41:43;;;;;;;4.80;2.70;;;;;;;;;;5114014;28;20198;-48
2022/09/05 10:44:12;;;;;;;5.87;2.90;;;;;;;;;;5113177;28;20667;-48
2022/09/05 10:46:44;;;;;;;5.37;2.80;;;;;;;;;;5113331;28;20202;-48
2022/09/05 10:49:13;;;;;;;7.80;3.17;;;;;;;;;;5113759;28;20222;-49
2022/09/05 10:51:43;;;;;;;5.67;2.70;;;;;;;;;;5113792;28;20198;-48
2022/09/05 10:54:17;;;;;;;4.80;3.13;;;;;;;;;;5112923;28;20262;-48
2022/09/05 10:56:46;;;;;;;8.43;2.90;;;;;;;;;;5113393;28;20204;-47
2022/09/05 10:59:19;;;;;;;5.50;2.97;;;;;;;;;;5113587;28;20351;-47
2022/09/05 11:01:50;;;;;;;3.73;2.73;;;;;;;;;;5113597;28;20266;-48
2022/09/05 11:04:22;;;;;;;9.67;3.43;;;;;;;;;;5113121;28;20284;-47
2022/09/05 11:06:53;;;;;;;3.40;3.10;;;;;;;;;;5113720;28;20260;-47
2022/09/05 11:09:24;;;;;;;5.23;3.30;;;;;;;;;;5113043;28;20228;-48
2022/09/05 11:11:56;;;;;;;7.63;2.83;;;;;;;;;;5113439;28;20203;-49
2022/09/05 11:14:33;;;;;;;4.60;2.70;;;;;;;;;;5113242;28;20198;-48
2022/09/05 11:17:07;;;;;;;4.43;2.70;;;;;;;;;;5113313;28;20193;-48
2022/09/05 11:19:38;;;;;;;4.47;2.60;;;;;;;;;;5113067;28;20207;-48
2022/09/05 11:22:06;;;;;;;4.00;2.80;;;;;;;;;;5113034;28;20200;-49
2022/09/05 11:24:35;;;;;;;5.37;2.90;;;;;;;;;;5113171;28;20192;-49
2022/09/05 11:27:04;;;;;;;4.37;3.03;;;;;;;;;;5112879;28;20194;-49
2022/09/05 11:29:35;;;;;;;5.70;2.60;;;;;;;;;;5112705;28;20623;-48
2022/09/05 11:32:11;;;;;;;3.50;2.90;;;;;;;;;;5112649;28;20193;-48
2022/09/05 11:34:55;;;;;;;2.87;2.50;;;;;;;;;;5110776;28;20251;-49
2022/09/05 11:37:28;;;;;;;3.93;2.77;;;;;;;;;;5112816;28;20663;-49
2022/09/05 11:40:18;;;;;;;6.07;2.43;;;;;;;;;;5113086;28;20207;-48
2022/09/05 11:42:52;;;;;;;2.60;2.40;;;;;;;;;;5102343;28;20284;-48
2022/09/05 11:45:38;;;;;;;6.97;2.80;;;;;;;;;;5112420;28;20206;-47
2022/09/05 11:48:12;;;;;;;3.77;2.30;;;;;;;;;;5112238;28;20218;-47
2022/09/05 11:50:44;;;;;;;3.43;2.47;;;;;;;;;;5112843;28;20202;-48
2022/09/05 11:53:27;;;;;;;4.87;2.53;;;;;;;;;;5111320;28;20205;-48
2022/09/05 11:56:00;;;;;;;8.37;2.37;;;;;;;;;;5112094;28;20552;-48
2022/09/05 11:58:32;;;;;;;5.40;2.60;;;;;;;;;;5112405;28;20532;-47
2022/09/05 12:01:05;;;;;;;6.43;2.17;;;;;;;;;;5112637;28;20283;-47
2022/09/05 12:03:40;;;;;;;4.07;2.10;;;;;;;;;;5112296;28;20197;-47
2022/09/05 12:06:14;;;;;;;7.50;2.30;;;;;;;;;;5108524;28;20189;-49
2022/09/05 12:08:41;;;;;;;4.57;2.30;;;;;;;;;;5112183;28;20448;-48
2022/09/05 12:11:16;;;;;;;5.27;2.20;;;;;;;;;;5112463;28;20283;-49
2022/09/05 12:13:46;;;;;;;2.43;2.20;;;;;;;;;;5112327;28;20908;-49
2022/09/05 12:16:40;;;;;;;5.13;2.43;;;;;;;;;;5112317;28;20254;-49
2022/09/05 12:19:12;;;;;;;3.17;1.90;;;;;;;;;;5112071;28;20190;-49
2022/09/05 12:21:41;;;;;;;2.13;1.93;;;;;;;;;;5112373;28;20201;-49
2022/09/05 12:24:13;;;;;;;2.20;2.00;;;;;;;;;;5112224;28;20194;-49
2022/09/05 12:26:42;;;;;;;5.43;2.30;;;;;;;;;;5112204;28;20659;-49
2022/09/05 12:29:10;;;;;;;3.60;2.30;;;;;;;;;;5112122;28;20232;-49
2022/09/05 12:31:39;;;;;;;3.10;2.10;;;;;;;;;;5112029;28;20841;-49
2022/09/05 12:34:08;;;;;;;4.03;2.30;;;;;;;;;;5111328;28;20201;-49
2022/09/05 12:36:38;;;;;;;2.57;2.10;;;;;;;;;;5111814;28;20200;-49
2022/09/05 12:39:16;;;;;;;2.37;2.13;;;;;;;;;;5112029;28;20193;-49
2022/09/05 12:41:47;;;;;;;3.53;2.30;;;;;;;;;;5112065;28;20292;-49
2022/09/05 12:44:19;;;;;;;4.73;2.27;;;;;;;;;;5112020;28;20208;-49
2022/09/05 12:46:53;;;;;;;5.73;2.13;;;;;;;;;;5111987;28;20830;-49
2022/09/05 12:49:22;;;;;;;2.73;1.87;;;;;;;;;;5109996;28;20213;-49
2022/09/05 12:51:54;;;;;;;2.23;1.97;;;;;;;;;;5111871;28;20197;-49
2022/09/05 12:54:24;;;;;;;2.47;2.23;;;;;;;;;;5111511;28;20775;-49
2022/09/05 12:56:55;;;;;;;2.67;2.00;;;;;;;;;;5111787;28;20209;-50
2022/09/05 12:59:22;;;;;;;5.53;2.43;;;;;;;;;;5111106;28;20818;-49
2022/09/05 13:02:02;;;;;;;2.40;2.20;;;;;;;;;;5111240;28;20202;-50
2022/09/05 13:04:31;;;;;;;4.67;2.57;;;;;;;;;;5111676;28;20290;-49
2022/09/05 13:06:59;;;;;;;4.00;2.20;;;;;;;;;;5111423;28;20221;-49
2022/09/05 13:09:27;;;;;;;4.07;2.20;;;;;;;;;;5111679;28;20306;-49
2022/09/05 13:12:02;;;;;;;4.83;2.43;;;;;;;;;;5111900;28;20209;-48
2022/09/05 13:14:31;;;;;;;2.70;2.43;;;;;;;;;;5111704;28;20200;-48
2022/09/05 13:17:00;;;;;;;2.67;2.17;;;;;;;;;;5111105;28;20680;-50
2022/09/05 13:19:30;;;;;;;3.03;2.50;;;;;;;;;;5114832;28;20209;-50
2022/09/05 13:21:57;;;;;;;1.87;1.77;;;;;;;;;;5115844;28;20359;-48
2022/09/05 13:24:26;;;;;;;3.40;2.60;;;;;;;;;;5115813;28;20557;-50
2022/09/05 13:26:54;;;;;;;4.17;2.20;;;;;;;;;;5115587;28;20197;-49
2022/09/05 13:29:23;;;;;;;4.47;2.20;;;;;;;;;;5115466;28;20240;-49
2022/09/05 13:32:01;;;;;;;2.73;2.17;;;;;;;;;;5114908;28;20205;-50
2022/09/05 13:34:29;;;;;;;3.83;2.30;;;;;;;;;;5114958;28;20238;-50
2022/09/05 13:37:01;;;;;;;3.67;2.43;;;;;;;;;;5114930;28;20519;-50
2022/09/05 13:39:30;;;;;;;6.20;2.40;;;;;;;;;;5114885;28;20254;-50
2022/09/05 13:42:00;;;;;;;3.20;2.37;;;;;;;;;;5115258;28;20663;-49
2022/09/05 13:44:28;;;;;;;3.63;2.33;;;;;;;;;;5114820;28;20204;-49
2022/09/05 13:46:58;;;;;;;4.73;2.00;;;;;;;;;;5115268;28;20203;-53
2022/09/05 13:49:26;;;;;;;3.60;2.03;;;;;;;;;;5114735;28;20241;-50
2022/09/05 13:51:59;;;;;;;3.40;2.23;;;;;;;;;;5114979;28;20287;-50
2022/09/05 13:54:36;;;;;;;7.40;2.40;;;;;;;;;;5115074;28;20197;-54
2022/09/05 13:57:21;;;;;;;4.47;2.23;;;;;;;;;;5114838;28;20717;-49
2022/09/05 14:00:17;;;;;;;2.93;2.30;;;;;;;;;;5114538;28;20194;-48
2022/09/05 14:02:46;;;;;;;2.40;2.00;;;;;;;;;;5114430;28;20242;-50
2022/09/05 14:05:24;;;;;;;3.73;2.30;;;;;;;;;;5114614;28;20195;-49
2022/09/05 14:08:15;;;;;;;2.37;2.03;;;;;;;;;;5114480;28;20229;-57
2022/09/05 14:10:48;;;;;;;3.40;2.43;;;;;;;;;;5098337;28;20223;-48
2022/09/05 14:13:18;;;;;;;3.00;2.47;;;;;;;;;;5114717;28;20680;-49
2022/09/05 14:15:48;;;;;;;4.00;2.30;;;;;;;;;;5114689;28;20193;-48
2022/09/05 14:18:16;;;;;;;2.60;2.30;;;;;;;;;;5114512;28;20200;-48
2022/09/05 14:23:37;;;;;;;3.63;2.33;;;;;;;;;;5114872;28;20331;-48
2022/09/05 14:32:56;;;;;;;4.63;2.50;;;;;;;;;;5085620;28;20583;-47
2022/09/05 14:35:24;;;;;;;2.23;2.00;;;;;;;;;;5087565;28;20213;-47
2022/09/05 14:37:56;;;;;;;2.23;2.10;;;;;;;;;;5088284;28;20238;-48
2022/09/05 14:40:55;;;;;;;4.03;2.23;;;;;;;;;;5087756;28;20198;-55
2022/09/05 14:43:32;;;;;;;3.77;1.80;;;;;;;;;;5045504;28;20208;-49
2022/09/05 14:46:12;;;;;;;2.80;2.10;;;;;;;;;;5045072;28;20333;-49
2022/09/05 14:48:45;;;;;;;4.90;2.00;;;;;;;;;;5071045;28;20667;-48
2022/09/05 14:51:16;;;;;;;6.13;2.30;;;;;;;;;;5087677;28;20227;-49
2022/09/05 14:53:53;;;;;;;3.57;2.20;;;;;;;;;;5087636;28;20199;-50
2022/09/05 15:01:02;;;;;;;4.10;2.10;;;;;;;;;;5086483;28;20585;-48
2022/09/05 15:03:35;;;;;;;6.77;2.03;;;;;;;;;;5088381;28;20215;-46
2022/09/05 15:06:02;;;;;;;2.90;2.10;;;;;;;;;;5088198;28;20204;-47
2022/09/05 15:08:29;;;;;;;4.23;2.20;;;;;;;;;;5086093;28;20727;-47
2022/09/05 15:10:57;;;;;;;4.00;2.10;;;;;;;;;;5087937;28;20283;-48
2022/09/05 15:13:23;;;;;;;4.60;2.10;;;;;;;;;;5086843;28;20210;-48
2022/09/05 15:15:51;;;;;;;3.47;2.40;;;;;;;;;;5087793;28;20285;-48
2022/09/05 15:18:21;;;;;;;5.13;2.40;;;;;;;;;;5087733;28;20711;-49
2022/09/05 15:20:49;;;;;;;6.67;2.50;;;;;;;;;;5087858;28;20313;-49
2022/09/05 15:23:28;;;;;;;3.17;2.40;;;;;;;;;;5087693;28;20261;-49
2022/09/05 15:25:58;;;;;;;3.43;2.70;;;;;;;;;;5087591;28;20260;-50
2022/09/05 15:28:30;;;;;;;2.47;2.27;;;;;;;;;;5087326;28;20285;-50
2022/09/05 15:30:57;;;;;;;5.00;2.50;;;;;;;;;;5086669;28;20303;-49
2022/09/05 15:33:27;;;;;;;3.60;2.50;;;;;;;;;;5087466;28;20877;-49